Golden, CO (80401)

5:16 PM MDT on May 24, 2017 (GMT -0600)
Heritage Dells | | Change Station

Elev 6076 ft 39.73 °N, 105.21 °W | Updated 48 seconds ago

Clear
Clear
81.9 °F
Feels Like 80 °F
N
4.0
Wind Variable Wind from WSW

Today
High -- | Low -- °F
--% Chance of Precip.
Yesterday
High -- | Low -- °F
Precip. -- in
Pressure 29.65 in
Visibility 50.0 miles
Clouds Few 8000 ft
Heat Index 80 °F
Dew Point 32 °F
Humidity 17%
Rainfall 0.00 in
Snow Depth Not available.
5:38 AM 8:16 PM
Waning Crescent, 1% visible
METAR KBJC 242245Z 26016G20KT 50SM FEW080 28/00 A2965
Pressure 29.65 in
Visibility 50.0 miles
Clouds Few 8000 ft
Heat Index 80 °F
Dew Point 32 °F
Humidity 17%
Rainfall 0.00 in
Snow Depth Not available.
5:38 AM 8:16 PM
Waning Crescent, 1% visible
METAR KBJC 242245Z 26016G20KT 50SM FEW080 28/00 A2965

Get Severe Weather Alerts

Thanks for signing up!

Be on the lookout for a verification email in your inbox.

You'll start receiving the daily forecast at 6 AM.

×

10-Day Weather Forecast

Almanac

Astronomy

May. 24, 2017 Rise Set
Actual Time
Civil Twilight
Nautical Twilight
Astronomical Twilight
Moon
Length of Visible Light
Length of Day
Tomorrow will be .
, % of the Moon is Illuminated

Today's Extremes

State Highs State Lows

Community

WunderPhotos

Category 6

Welcome to Category 6. This is the collective home for Weather Underground's featured writeups by Dr. Jeff Masters (right), Bob Henson (left), Chris Burt, and other regular contributors.

Nearby

Air Quality

  Air Quality AQ Index Pollutant
Not available.

Snow Depth

Station Depth Elevation

Earthquake Activity

City Distance Mag. Time & Date
Minimum magnitude displayed is 2.5.

Coastal Water Temperatures

Place Temperature

Stations

Nearby Weather Stations

Station Location Temp. Windchill Dew Point Humidity Wind Precip. Elev Updated Type
                   

Watches & Warnings

There are currently no watches in effect.